createdAt,value
2023-03-12T00:01:59.756Z,94849.72
2023-03-12T00:04:26.917Z,94846.63
2023-03-12T00:06:53.479Z,94852.66
2023-03-12T00:09:20.000Z,94852.00
2023-03-12T00:11:46.453Z,94856.88
2023-03-12T00:14:12.888Z,94864.03
2023-03-12T00:16:39.340Z,94856.53
2023-03-12T00:19:05.844Z,94861.72
2023-03-12T00:21:32.271Z,94862.72
2023-03-12T00:23:58.752Z,94851.97
2023-03-12T00:26:25.223Z,94857.63
2023-03-12T00:28:51.798Z,94859.44
2023-03-12T00:31:19.799Z,94863.00
2023-03-12T00:33:46.360Z,94859.44
2023-03-12T00:36:12.792Z,94861.09
2023-03-12T00:38:39.272Z,94856.06
2023-03-12T00:41:05.710Z,94851.34
2023-03-12T00:43:32.175Z,94842.69
2023-03-12T00:45:58.618Z,94856.84
2023-03-12T00:48:25.375Z,94840.28
2023-03-12T00:50:51.802Z,94850.97
2023-03-12T00:53:18.269Z,94856.50
2023-03-12T00:55:44.783Z,94850.28
2023-03-12T00:58:11.195Z,94870.28
2023-03-12T01:00:37.676Z,94863.13
2023-03-12T01:03:04.195Z,94868.47
2023-03-12T01:05:32.975Z,94879.06
2023-03-12T01:08:01.228Z,94864.78
2023-03-12T01:10:27.674Z,94883.78
2023-03-12T01:12:54.122Z,94881.19
2023-03-12T01:15:20.638Z,94883.16
2023-03-12T01:17:47.137Z,94884.78
2023-03-12T01:20:13.768Z,94888.16
2023-03-12T01:22:40.168Z,94878.75
2023-03-12T01:25:07.202Z,94892.84
2023-03-12T01:27:33.649Z,94886.69
2023-03-12T01:30:00.401Z,94897.41
2023-03-12T01:32:27.015Z,94887.31
2023-03-12T01:34:53.570Z,94892.19
2023-03-12T01:37:20.003Z,94902.16
2023-03-12T01:39:46.542Z,94900.72
2023-03-12T01:42:12.979Z,94902.69
2023-03-12T01:45:08.899Z,94895.53
2023-03-12T01:47:35.346Z,94909.50
2023-03-12T01:50:03.403Z,94909.19
2023-03-12T01:52:32.306Z,94923.00
2023-03-12T01:55:01.741Z,94910.78
2023-03-12T01:57:40.409Z,94926.06
2023-03-12T02:00:13.074Z,94927.22
2023-03-12T02:02:40.026Z,94932.91
2023-03-12T02:05:09.310Z,94936.81
2023-03-12T02:07:35.758Z,94932.59
2023-03-12T02:10:03.464Z,94926.41
2023-03-12T02:12:29.992Z,94941.22
2023-03-12T02:14:56.480Z,94926.91
2023-03-12T02:17:23.037Z,94939.75
2023-03-12T02:20:08.362Z,94942.38
2023-03-12T02:22:39.177Z,94945.94
2023-03-12T02:25:17.586Z,94948.69
2023-03-12T02:27:44.183Z,94951.63
2023-03-12T02:30:10.983Z,94949.53
2023-03-12T02:32:39.539Z,94951.63
2023-03-12T02:35:06.449Z,94958.47
2023-03-12T02:37:32.945Z,94954.25
2023-03-12T02:40:08.667Z,94949.03
2023-03-12T02:42:35.367Z,94957.50
2023-03-12T02:45:03.065Z,94968.56
2023-03-12T02:47:29.568Z,94971.97
2023-03-12T02:49:56.044Z,94967.75
2023-03-12T02:52:22.518Z,94973.25
2023-03-12T02:55:07.611Z,94979.13
2023-03-12T02:57:37.543Z,94981.38
2023-03-12T03:00:11.958Z,94987.75
2023-03-12T03:02:39.154Z,94989.88
2023-03-12T03:05:05.766Z,94994.41
2023-03-12T03:07:32.258Z,94999.28
2023-03-12T03:10:04.087Z,95001.25
2023-03-12T03:12:34.186Z,95014.56
2023-03-12T03:15:01.034Z,95015.56
2023-03-12T03:17:27.946Z,95016.22
2023-03-12T03:19:54.391Z,95021.25
2023-03-12T03:22:21.580Z,95035.72
2023-03-12T03:24:48.039Z,95024.00
2023-03-12T03:27:14.915Z,95028.22
2023-03-12T03:29:41.574Z,95032.31
2023-03-12T03:32:08.026Z,95033.75
2023-03-12T03:34:34.534Z,95035.72
2023-03-12T03:37:01.022Z,95043.19
2023-03-12T03:39:28.891Z,95045.31
2023-03-12T03:41:55.336Z,95043.03
2023-03-12T03:44:23.242Z,95055.88
2023-03-12T03:46:49.916Z,95051.31
2023-03-12T03:49:16.860Z,95052.66
2023-03-12T03:51:43.395Z,95059.47
2023-03-12T03:54:10.088Z,95059.78
2023-03-12T03:56:36.581Z,95055.88
2023-03-12T03:59:04.146Z,95064.47
2023-03-12T04:01:31.479Z,95058.16
2023-03-12T04:03:58.503Z,95061.88
2023-03-12T04:06:25.416Z,95069.34
2023-03-12T04:08:51.933Z,95063.84
2023-03-12T04:11:19.769Z,95061.25
2023-03-12T04:13:46.513Z,95063.50
2023-03-12T04:16:13.885Z,95059.75
2023-03-12T04:18:42.236Z,95060.41
2023-03-12T04:21:09.841Z,95059.75
2023-03-12T04:23:37.048Z,95063.69
2023-03-12T04:26:04.112Z,95072.25
2023-03-12T04:28:30.639Z,95062.97
2023-03-12T04:31:01.112Z,95066.56
2023-03-12T04:33:28.588Z,95062.97
2023-03-12T04:35:55.447Z,95066.22
2023-03-12T04:38:22.571Z,95059.56
2023-03-12T04:40:57.598Z,95067.84
2023-03-12T04:43:24.068Z,95070.25
2023-03-12T04:45:50.726Z,95078.56
2023-03-12T04:48:17.161Z,95079.84
2023-03-12T04:50:44.658Z,95081.31
2023-03-12T04:53:11.246Z,95086.19
2023-03-12T04:55:37.679Z,95090.88
2023-03-12T04:58:04.231Z,95098.34
2023-03-12T05:00:30.752Z,95104.88
2023-03-12T05:02:57.271Z,95102.72
2023-03-12T05:05:23.925Z,95100.78
2023-03-12T05:07:50.375Z,95103.38
2023-03-12T05:10:16.824Z,95113.63
2023-03-12T05:12:43.316Z,95114.44
2023-03-12T05:15:10.056Z,95113.63
2023-03-12T05:17:36.489Z,95122.06
2023-03-12T05:20:05.160Z,95114.25
2023-03-12T05:22:31.832Z,95113.94
2023-03-12T05:24:58.258Z,95127.28
2023-03-12T05:27:26.163Z,95128.94
2023-03-12T05:29:53.152Z,95136.66
2023-03-12T05:32:19.618Z,95135.88
2023-03-12T05:34:46.156Z,95137.34
2023-03-12T05:37:12.616Z,95140.59
2023-03-12T05:39:39.534Z,95143.69
2023-03-12T05:42:06.198Z,95149.81
2023-03-12T05:44:34.822Z,95151.59
2023-03-12T05:47:01.292Z,95147.22
2023-03-12T05:49:27.714Z,95149.31
2023-03-12T05:51:54.186Z,95152.91
2023-03-12T05:54:20.676Z,95166.25
2023-03-12T05:56:47.145Z,95168.19
2023-03-12T05:59:13.762Z,95176.00
2023-03-12T06:01:40.538Z,95188.34
2023-03-12T06:04:07.174Z,95191.09
2023-03-12T06:06:34.650Z,95194.19
2023-03-12T06:09:01.228Z,95190.81
2023-03-12T06:11:27.710Z,95204.44
2023-03-12T06:13:54.192Z,95206.91
2023-03-12T06:16:21.669Z,95210.97
2023-03-12T06:18:48.220Z,95219.59
2023-03-12T06:21:19.019Z,95226.06
2023-03-12T06:23:46.251Z,95214.22
2023-03-12T06:26:13.135Z,95227.72
2023-03-12T06:28:40.164Z,95237.47
2023-03-12T06:31:07.097Z,95243.16
2023-03-12T06:33:34.127Z,95236.84
2023-03-12T06:36:01.725Z,95247.28
2023-03-12T06:38:28.711Z,95242.09
2023-03-12T06:41:00.194Z,95248.91
2023-03-12T06:43:27.757Z,95249.72
2023-03-12T06:45:54.949Z,95253.63
2023-03-12T06:48:21.880Z,95264.53
2023-03-12T06:50:48.539Z,95262.25
2023-03-12T06:53:14.975Z,95268.63
2023-03-12T06:55:41.401Z,95268.81
2023-03-12T06:58:07.895Z,95261.50
2023-03-12T07:00:34.871Z,95273.69
2023-03-12T07:03:01.737Z,95262.97
2023-03-12T07:05:30.072Z,95274.38
2023-03-12T07:07:57.858Z,95280.59
2023-03-12T07:10:24.352Z,95267.91
2023-03-12T07:12:50.953Z,95285.97
2023-03-12T07:15:17.418Z,95286.63
2023-03-12T07:17:43.855Z,95288.75
2023-03-12T07:20:10.736Z,95289.06
2023-03-12T07:22:37.197Z,95295.28
2023-03-12T07:25:04.729Z,95295.63
2023-03-12T07:27:31.193Z,95296.28
2023-03-12T07:29:57.637Z,95298.91
2023-03-12T07:32:24.105Z,95305.72
2023-03-12T07:34:50.576Z,95309.81
2023-03-12T07:37:17.052Z,95308.38
2023-03-12T07:39:44.537Z,95308.72
2023-03-12T07:42:12.850Z,95313.13
2023-03-12T07:44:39.447Z,95315.78
2023-03-12T07:47:22.313Z,95324.72
2023-03-12T07:49:49.625Z,95324.09
2023-03-12T07:52:18.077Z,95323.09
2023-03-12T07:54:44.704Z,95328.66
2023-03-12T07:57:11.349Z,95318.09
2023-03-12T07:59:38.005Z,95322.81
2023-03-12T08:02:04.557Z,95319.06
2023-03-12T08:04:31.227Z,95326.09
2023-03-12T08:06:58.285Z,95329.34
2023-03-12T08:09:25.504Z,95327.41
2023-03-12T08:11:52.048Z,95321.53
2023-03-12T08:14:18.609Z,95331.94
2023-03-12T08:16:45.147Z,95327.22
2023-03-12T08:19:11.849Z,95323.50
2023-03-12T08:21:38.318Z,95323.66
2023-03-12T08:24:04.855Z,95338.78
2023-03-12T08:26:31.382Z,95325.13
2023-03-12T08:29:00.210Z,95325.13
2023-03-12T08:31:27.498Z,95329.66
2023-03-12T08:33:54.035Z,95344.97
2023-03-12T08:36:22.391Z,95347.09
2023-03-12T08:38:49.104Z,95337.81
2023-03-12T08:41:15.566Z,95346.94
2023-03-12T08:43:42.059Z,95345.94
2023-03-12T08:46:11.033Z,95351.66
2023-03-12T08:48:38.835Z,95365.19
2023-03-12T08:51:07.484Z,95366.47
2023-03-12T08:53:34.765Z,95367.78
2023-03-12T08:56:02.084Z,95364.88
2023-03-12T08:58:28.539Z,95368.75
2023-03-12T09:00:55.808Z,95363.84
2023-03-12T09:03:22.540Z,95369.41
2023-03-12T09:05:49.588Z,95364.81
2023-03-12T09:08:16.609Z,95380.16
2023-03-12T09:10:48.092Z,95376.72
2023-03-12T09:13:14.622Z,95372.81
2023-03-12T09:15:41.057Z,95377.50
2023-03-12T09:18:07.512Z,95379.09
2023-03-12T09:20:33.971Z,95385.59
2023-03-12T09:23:00.430Z,95383.19
2023-03-12T09:25:26.965Z,95377.97
2023-03-12T09:27:53.484Z,95370.94
2023-03-12T09:30:20.941Z,95374.00
2023-03-12T09:32:47.424Z,95373.81
2023-03-12T09:35:15.050Z,95378.28
2023-03-12T09:37:41.545Z,95378.81
2023-03-12T09:40:10.574Z,95368.16
2023-03-12T09:42:47.934Z,95370.75
2023-03-12T09:45:21.307Z,95370.75
2023-03-12T09:47:50.387Z,95363.53
2023-03-12T09:50:20.159Z,95369.22
2023-03-12T09:52:51.088Z,95367.72
2023-03-12T09:55:19.823Z,95368.19
2023-03-12T09:57:48.114Z,95368.31
2023-03-12T10:00:16.436Z,95370.22
2023-03-12T10:02:48.408Z,95353.50
2023-03-12T10:05:23.764Z,95366.69
2023-03-12T10:08:23.138Z,95355.81
2023-03-12T10:10:54.975Z,95354.75
2023-03-12T10:13:24.442Z,95350.09
2023-03-12T10:15:57.643Z,95343.00
2023-03-12T10:18:43.215Z,95339.16
2023-03-12T10:21:24.925Z,95326.72
2023-03-12T10:23:51.378Z,95337.09
2023-03-12T10:26:26.675Z,95332.44
2023-03-12T10:28:59.099Z,95340.56
2023-03-12T10:31:36.420Z,95342.13
2023-03-12T10:34:09.317Z,95343.41
2023-03-12T10:36:38.440Z,95342.94
2023-03-12T10:39:06.879Z,95332.38
2023-03-12T10:41:34.886Z,95348.19
2023-03-12T10:44:03.966Z,95340.50
2023-03-12T10:46:39.027Z,95334.47
2023-03-12T10:49:34.959Z,95337.88
2023-03-12T10:52:03.097Z,95325.44
2023-03-12T10:54:30.948Z,95339.34
2023-03-12T10:56:57.607Z,95329.03
2023-03-12T10:59:27.433Z,95326.22
2023-03-12T11:01:53.954Z,95339.06
2023-03-12T11:04:31.012Z,95329.59
2023-03-12T11:07:12.500Z,95332.00
2023-03-12T11:09:38.952Z,95339.22
2023-03-12T11:12:25.749Z,95327.59
2023-03-12T11:14:52.420Z,95327.75
2023-03-12T11:17:26.083Z,95331.31
2023-03-12T11:19:52.969Z,95327.88
2023-03-12T11:22:32.984Z,95317.41
2023-03-12T11:25:06.060Z,95332.66
2023-03-12T11:27:38.208Z,95337.72
2023-03-12T11:30:07.341Z,95340.28
2023-03-12T11:32:38.785Z,95338.25
2023-03-12T11:35:09.943Z,95330.56
2023-03-12T11:37:41.344Z,95316.09
2023-03-12T11:40:17.318Z,95316.41
2023-03-12T11:42:46.592Z,95316.16
2023-03-12T11:45:16.172Z,95310.66
2023-03-12T11:48:01.250Z,95294.81
2023-03-12T11:50:35.327Z,95305.50
2023-03-12T11:53:07.663Z,95305.94
2023-03-12T11:55:37.135Z,95311.53
2023-03-12T11:58:22.405Z,95297.56
2023-03-12T12:00:51.955Z,95296.44
2023-03-12T12:03:28.076Z,95306.78
2023-03-12T12:05:54.582Z,95299.00
2023-03-12T12:08:32.315Z,95307.41
2023-03-12T12:11:15.417Z,95302.78
2023-03-12T12:13:41.859Z,95302.84
2023-03-12T12:16:08.327Z,95319.22
2023-03-12T12:18:36.027Z,95324.69
2023-03-12T12:21:08.054Z,95322.16
2023-03-12T12:23:44.157Z,95322.56
2023-03-12T12:26:19.596Z,95319.16
2023-03-12T12:28:45.998Z,95325.03
2023-03-12T12:31:20.785Z,95328.66
2023-03-12T12:33:53.426Z,95331.16
2023-03-12T12:36:19.910Z,95320.50
2023-03-12T12:39:09.441Z,95320.97
2023-03-12T12:41:37.308Z,95317.72
2023-03-12T12:44:11.333Z,95319.56
2023-03-12T12:46:39.866Z,95326.41
2023-03-12T12:49:14.836Z,95328.19
2023-03-12T12:51:47.387Z,95332.56
2023-03-12T12:54:23.413Z,95318.72
2023-03-12T12:56:49.926Z,95317.63
2023-03-12T12:59:21.605Z,95324.94
2023-03-12T13:01:48.597Z,95327.03
2023-03-12T13:04:23.493Z,95317.34
2023-03-12T13:06:55.957Z,95320.41
2023-03-12T13:09:23.450Z,95316.94
2023-03-12T13:11:51.627Z,95322.16
2023-03-12T13:14:20.628Z,95315.63
2023-03-12T13:16:47.685Z,95314.41
2023-03-12T13:19:14.130Z,95315.22
2023-03-12T13:21:41.800Z,95316.06
2023-03-12T13:24:23.289Z,95314.28
2023-03-12T13:26:58.706Z,95320.16
2023-03-12T13:29:36.054Z,95321.22
2023-03-12T13:32:02.999Z,95319.44
2023-03-12T13:34:31.532Z,95320.34
2023-03-12T13:36:59.761Z,95323.72
2023-03-12T13:39:32.122Z,95324.47
2023-03-12T13:42:00.593Z,95322.28
2023-03-12T13:44:27.046Z,95332.81
2023-03-12T13:46:59.543Z,95329.38
2023-03-12T13:49:27.316Z,95330.75
2023-03-12T13:51:55.729Z,95326.78
2023-03-12T13:54:25.464Z,95326.44
2023-03-12T13:57:03.317Z,95330.44
2023-03-12T13:59:30.170Z,95334.44
2023-03-12T14:02:02.339Z,95339.28
2023-03-12T14:04:40.876Z,95335.59
2023-03-12T14:07:13.195Z,95334.38
2023-03-12T14:10:07.025Z,95329.91
2023-03-12T14:12:40.527Z,95323.63
2023-03-12T14:15:07.006Z,95329.09
2023-03-12T14:17:34.588Z,95325.03
2023-03-12T14:20:10.606Z,95320.22
2023-03-12T14:22:38.717Z,95327.53
2023-03-12T14:25:13.145Z,95326.13
2023-03-12T14:27:40.207Z,95329.00
2023-03-12T14:30:33.155Z,95329.66
2023-03-12T14:33:02.422Z,95332.81
2023-03-12T14:35:41.725Z,95334.06
2023-03-12T14:38:11.182Z,95324.56
2023-03-12T14:40:37.691Z,95331.28
2023-03-12T14:43:18.661Z,95343.03
2023-03-12T14:45:45.126Z,95330.72
2023-03-12T14:48:12.175Z,95327.88
2023-03-12T14:50:40.447Z,95328.88
2023-03-12T14:53:12.145Z,95328.25
2023-03-12T14:55:38.663Z,95323.38
2023-03-12T14:58:07.052Z,95330.97
2023-03-12T15:00:33.740Z,95319.22
2023-03-12T15:03:03.309Z,95316.81
2023-03-12T15:05:29.974Z,95321.06
2023-03-12T15:08:00.875Z,95319.44
2023-03-12T15:10:28.644Z,95323.47
2023-03-12T15:12:57.481Z,95321.22
2023-03-12T15:15:36.143Z,95330.66
2023-03-12T15:18:13.228Z,95334.97
2023-03-12T15:20:40.382Z,95331.91
2023-03-12T15:23:07.664Z,95317.19
2023-03-12T15:25:34.993Z,95324.50
2023-03-12T15:28:10.623Z,95333.38
2023-03-12T15:30:38.146Z,95333.78
2023-03-12T15:33:10.744Z,95341.19
2023-03-12T15:35:39.079Z,95344.44
2023-03-12T15:38:06.113Z,95340.81
2023-03-12T15:40:32.696Z,95357.81
2023-03-12T15:43:03.213Z,95356.59
2023-03-12T15:45:34.942Z,95358.56
2023-03-12T15:48:02.767Z,95368.66
2023-03-12T15:50:41.344Z,95371.84
2023-03-12T15:53:25.779Z,95369.03
2023-03-12T15:56:01.527Z,95382.75
2023-03-12T15:58:28.533Z,95377.06
2023-03-12T16:00:54.998Z,95383.91
2023-03-12T16:03:22.398Z,95389.72
2023-03-12T16:05:49.917Z,95392.75
2023-03-12T16:08:20.663Z,95395.72
2023-03-12T16:10:48.147Z,95406.78
2023-03-12T16:13:16.035Z,95405.91
2023-03-12T16:15:42.483Z,95411.94
2023-03-12T16:18:12.806Z,95412.31
2023-03-12T16:20:39.317Z,95413.03
2023-03-12T16:23:05.788Z,95413.44
2023-03-12T16:25:32.562Z,95410.81
2023-03-12T16:28:01.397Z,95409.50
2023-03-12T16:30:32.260Z,95416.28
2023-03-12T16:33:00.266Z,95413.47
2023-03-12T16:35:28.322Z,95405.78
2023-03-12T16:37:55.747Z,95411.69
2023-03-12T16:40:32.828Z,95411.63
2023-03-12T16:43:03.381Z,95408.03
2023-03-12T16:45:30.763Z,95414.06
2023-03-12T16:48:01.864Z,95415.06
2023-03-12T16:50:28.641Z,95414.44
2023-03-12T16:52:55.559Z,95408.56
2023-03-12T16:55:23.605Z,95407.13
2023-03-12T16:57:52.204Z,95406.25
2023-03-12T17:00:25.877Z,95407.78
2023-03-12T17:02:57.726Z,95416.03
2023-03-12T17:05:28.379Z,95412.94
2023-03-12T17:07:55.106Z,95416.31
2023-03-12T17:10:22.349Z,95425.28
2023-03-12T17:12:48.988Z,95440.19
2023-03-12T17:15:18.716Z,95460.53
2023-03-12T17:17:45.235Z,95460.81
2023-03-12T17:20:13.980Z,95463.78
2023-03-12T17:22:40.944Z,95459.72
2023-03-12T17:25:08.055Z,95468.13
2023-03-12T17:27:34.789Z,95468.03
2023-03-12T17:30:01.246Z,95478.88
2023-03-12T17:32:30.006Z,95485.28
2023-03-12T17:34:57.723Z,95483.22
2023-03-12T17:37:24.146Z,95488.00
2023-03-12T17:39:50.657Z,95487.53
2023-03-12T17:42:17.141Z,95473.31
2023-03-12T17:44:43.562Z,95472.69
2023-03-12T17:47:10.032Z,95466.19
2023-03-12T17:49:36.519Z,95473.75
2023-03-12T17:52:03.307Z,95479.06
2023-03-12T17:54:30.190Z,95472.88
2023-03-12T17:56:56.651Z,95471.16
2023-03-12T17:59:23.136Z,95471.69
2023-03-12T18:01:49.627Z,95477.09
2023-03-12T18:04:16.263Z,95486.75
2023-03-12T18:06:42.805Z,95484.16
2023-03-12T18:09:09.255Z,95483.84
2023-03-12T18:11:35.704Z,95475.25
2023-03-12T18:14:02.166Z,95468.06
2023-03-12T18:16:28.823Z,95473.19
2023-03-12T18:18:55.319Z,95473.72
2023-03-12T18:21:21.825Z,95475.88
2023-03-12T18:23:48.300Z,95485.88
2023-03-12T18:26:14.776Z,95479.16
2023-03-12T18:28:41.220Z,95480.34
2023-03-12T18:31:09.172Z,95473.03
2023-03-12T18:33:36.435Z,95472.19
2023-03-12T18:36:03.935Z,95464.53
2023-03-12T18:38:33.225Z,95464.88
2023-03-12T18:41:06.681Z,95461.25
2023-03-12T18:43:33.569Z,95450.78
2023-03-12T18:46:00.086Z,95455.56
2023-03-12T18:48:26.808Z,95453.47
2023-03-12T18:50:53.627Z,95453.97
2023-03-12T18:53:20.435Z,95454.13
2023-03-12T18:55:51.252Z,95452.03
2023-03-12T18:58:17.717Z,95456.81
2023-03-12T19:00:44.214Z,95452.72
2023-03-12T19:03:10.699Z,95455.50
2023-03-12T19:05:37.190Z,95464.34
2023-03-12T19:08:04.100Z,95469.44
2023-03-12T19:10:30.571Z,95472.72
2023-03-12T19:12:57.076Z,95482.72
2023-03-12T19:15:26.507Z,95481.09
2023-03-12T19:17:54.080Z,95484.41
2023-03-12T19:20:20.776Z,95489.63
2023-03-12T19:22:47.282Z,95486.06
2023-03-12T19:25:14.367Z,95481.50
2023-03-12T19:27:40.812Z,95482.50
2023-03-12T19:30:07.752Z,95484.47
2023-03-12T19:32:43.327Z,95491.69
2023-03-12T19:35:11.987Z,95479.91
2023-03-12T19:37:38.610Z,95478.59
2023-03-12T19:40:08.368Z,95485.16
2023-03-12T19:42:35.022Z,95483.22
2023-03-12T19:45:01.474Z,95483.72
2023-03-12T19:47:28.283Z,95491.06
2023-03-12T19:49:54.798Z,95485.34
2023-03-12T19:52:21.273Z,95476.38
2023-03-12T19:55:01.610Z,95487.00
2023-03-12T19:57:30.777Z,95493.53
2023-03-12T19:59:57.286Z,95492.56
2023-03-12T20:02:23.904Z,95496.44
2023-03-12T20:04:50.408Z,95509.00
2023-03-12T20:07:18.530Z,95514.56
2023-03-12T20:09:45.083Z,95531.72
2023-03-12T20:12:11.604Z,95523.06
2023-03-12T20:14:38.433Z,95524.34
2023-03-12T20:17:05.383Z,95530.88
2023-03-12T20:19:32.748Z,95533.31
2023-03-12T20:21:59.203Z,95508.88
2023-03-12T20:24:25.761Z,95499.56
2023-03-12T20:26:52.232Z,95502.81
2023-03-12T20:29:18.722Z,95502.00
2023-03-12T20:31:45.288Z,95499.88
2023-03-12T20:34:11.789Z,95501.84
2023-03-12T20:36:38.260Z,95499.88
2023-03-12T20:39:04.868Z,95505.22
2023-03-12T20:41:31.491Z,95493.34
2023-03-12T20:43:57.988Z,95486.84
2023-03-12T20:46:24.696Z,95482.75
2023-03-12T20:48:51.242Z,95477.38
2023-03-12T20:51:17.877Z,95484.53
2023-03-12T20:53:44.468Z,95481.25
2023-03-12T20:56:11.601Z,95490.25
2023-03-12T20:58:38.101Z,95481.75
2023-03-12T21:01:05.670Z,95479.97
2023-03-12T21:03:32.611Z,95479.81
2023-03-12T21:06:00.149Z,95487.13
2023-03-12T21:08:26.952Z,95500.00
2023-03-12T21:10:53.478Z,95492.34
2023-03-12T21:13:20.723Z,95494.97
2023-03-12T21:15:47.659Z,95499.84
2023-03-12T21:18:14.190Z,95500.19
2023-03-12T21:20:41.543Z,95497.91
2023-03-12T21:23:08.643Z,95503.13
2023-03-12T21:25:39.429Z,95486.63
2023-03-12T21:28:06.769Z,95490.25
2023-03-12T21:30:33.669Z,95496.56
2023-03-12T21:33:01.186Z,95486.00
2023-03-12T21:35:27.971Z,95476.03
2023-03-12T21:37:57.089Z,95481.63
2023-03-12T21:40:23.882Z,95482.25
2023-03-12T21:42:50.594Z,95478.69
2023-03-12T21:45:17.127Z,95482.25
2023-03-12T21:47:43.577Z,95472.66
2023-03-12T21:50:10.554Z,95480.47
2023-03-12T21:52:43.099Z,95472.47
2023-03-12T21:55:09.992Z,95462.69
2023-03-12T21:57:36.478Z,95465.16
2023-03-12T22:00:04.061Z,95463.03
2023-03-12T22:02:31.634Z,95462.69
2023-03-12T22:05:01.182Z,95453.41
2023-03-12T22:07:30.494Z,95451.13
2023-03-12T22:09:57.301Z,95452.25
2023-03-12T22:12:23.781Z,95451.13
2023-03-12T22:14:50.363Z,95443.31
2023-03-12T22:17:17.346Z,95437.25
2023-03-12T22:19:43.942Z,95439.53
2023-03-12T22:22:10.420Z,95422.09
2023-03-12T22:24:37.522Z,95429.09
2023-03-12T22:27:06.568Z,95428.78
2023-03-12T22:29:33.519Z,95429.78
2023-03-12T22:32:00.131Z,95429.59
2023-03-12T22:34:26.675Z,95441.16
2023-03-12T22:36:53.176Z,95446.06
2023-03-12T22:39:19.611Z,95442.47
2023-03-12T22:41:50.445Z,95453.56
2023-03-12T22:44:16.899Z,95448.34
2023-03-12T22:46:43.343Z,95452.25
2023-03-12T22:49:09.834Z,95441.50
2023-03-12T22:51:36.304Z,95440.34
2023-03-12T22:54:02.762Z,95442.47
2023-03-12T22:56:29.222Z,95436.44
2023-03-12T22:58:55.971Z,95439.88
2023-03-12T23:01:22.962Z,95444.28
2023-03-12T23:03:49.979Z,95446.72
2023-03-12T23:06:17.995Z,95450.63
2023-03-12T23:08:47.481Z,95457.16
2023-03-12T23:11:14.491Z,95448.97
2023-03-12T23:13:42.425Z,95450.31
2023-03-12T23:16:10.491Z,95441.13
2023-03-12T23:18:37.132Z,95449.97
2023-03-12T23:21:05.457Z,95453.22
2023-03-12T23:23:32.408Z,95450.78
2023-03-12T23:25:59.561Z,95452.59
2023-03-12T23:28:26.979Z,95448.81
2023-03-12T23:30:57.789Z,95452.25
2023-03-12T23:33:25.011Z,95449.31
2023-03-12T23:35:59.098Z,95453.88
2023-03-12T23:38:26.320Z,95456.66
2023-03-12T23:40:52.957Z,95462.69
2023-03-12T23:43:19.490Z,95463.19
2023-03-12T23:45:45.986Z,95464.31
2023-03-12T23:48:12.498Z,95452.56
2023-03-12T23:50:39.037Z,95453.88
2023-03-12T23:53:05.473Z,95451.75
2023-03-12T23:55:31.969Z,95474.75
2023-03-12T23:57:58.433Z,95462.00
